Corrales, NM

1:15 AM MDT on August 20, 2014 (GMT -0600)
APRSWXNET Rio Rancho NM US | Change Station
CLOSE
Current Station
Personal Weather Station
Location: Rio Rancho, NM
Elevation: 5278 ft
Nearby Weather Stations

Elev 5278 ft 35.24 °N, 106.65 °W | Updated 21 days ago

Thunderstorm
Thunderstorm
68 °F
Feels Like 68 °F
N
5
Wind Variable Wind from NNW
Gusts 6 mph

Today
High -- | Low -- °F
--% Chance of Precip.
Yesterday
High -- | Low -- °F
Precip. -- in
6:30 AM 7:49 PM
Waning Crescent, 24% visible
Pressure 30.08 in
Visibility 10.0 miles
Clouds Mostly Cloudy 7500 ft
Dew Point 54 °F
Humidity 58%
Rainfall 0.00 in
Snow Depth Not available.
UV 0 out of 12
Pollen 6.90 out of 12
Air Quality Not available.
Flu Activity Not available.
METAR KAEG 200655Z AUTO 23009KT 10SM BKN075 19/12 A3008 RMK AO2 T01850117 403110141

More Conditions Fewer Conditions

Pressure 30.08 in
Visibility 10.0 miles
Clouds Mostly Cloudy 7500 ft
Dew Point 54 °F
Humidity 58%
Rainfall 0.00 in
Snow Depth Not available.
UV 0 out of 12
Pollen 6.90 out of 12
Air Quality Not available.
Flu Activity Not available.
METAR KAEG 200655Z AUTO 23009KT 10SM BKN075 19/12 A3008 RMK AO2 T01850117 403110141

More Conditions Fewer Conditions

10-Day Weather Forecast

Almanac

Astronomy

Aug. 20, 2014 Rise Set
Actual Time 6:30 AM MDT 7:49 PM MDT
Civil Twilight 6:03 AM MDT 8:15 PM MDT
Nautical Twilight 5:31 AM MDT 8:47 PM MDT
Astronomical Twilight 4:58 AM MDT 9:20 PM MDT
Moon 2:16 AM MDT 4:32 PM MDT
Length of Visible Light 14h 12m
Length of Day
13h 19m
Tomorrow will be 2m 0s shorter.
Waning Crescent, 24% of the Moon is Illuminated
Today
Waning Crescent
Aug 25
New
Sep 2
First Quarter
Sep 8
Full
Sep 15
Last Quarter

Today's Extremes

State Highs State Lows

Community

WunderPhotos

Upload Photos

1,745,592 photos uploaded!

Nearby

Snow Depth

Station Depth Elevation
Quemazon 1 in 9500 ft
Senorita Divide #2 0 in 8600 ft
Santa Fe 1 in 11445 ft
Wesner Springs 1 in 11120 ft
Gallegos Peak 0 in 9800 ft

Earthquake Activity

City Distance Mag. Time & Date
No recent earthquake activity has been reported nearby.
Minimum magnitude displayed is 2.5.

Coastal Water Temperatures

Place Temperature
No Stations Reporting

Nearby Weather Stations